Time;durP1;ratioP1;P1;durP2;ratioP2;P2;SDS_P1;SDS_P2;PMS_P1;PMS_P2;Temp;Humidity;BMP_temperature;BMP_pressure;BME280_temperature;BME280_humidity;BME280_pressure;Samples;Min_cycle;Max_cycle;Signal;HPM_P1;HPM_P2
2023/12/24 21:16:22;;;;;;;1.85;0.60;;;24.30;69.60;;;;;;5016012;22;2927597;-42
2023/12/24 21:18:44;;;;;;;1.50;0.60;;;24.30;69.60;;;;;;5110786;23;20104;-43
2023/12/24 21:21:07;;;;;;;1.90;0.50;;;24.30;69.80;;;;;;5111618;23;20479;-43
2023/12/24 21:23:29;;;;;;;1.00;0.63;;;24.20;69.80;;;;;;5111471;23;20025;-41
2023/12/24 21:25:52;;;;;;;0.40;0.40;;;24.20;69.80;;;;;;5110966;23;20013;-43
2023/12/24 21:28:15;;;;;;;1.23;0.40;;;24.30;69.80;;;;;;5110171;23;20017;-45
2023/12/24 21:30:37;;;;;;;1.95;0.63;;;24.20;69.80;;;;;;5111409;23;20013;-41
2023/12/24 21:33:00;;;;;;;1.55;0.60;;;24.20;70.00;;;;;;5110203;23;20100;-41
2023/12/24 21:35:22;;;;;;;2.22;0.75;;;24.30;69.80;;;;;;5112096;23;20433;-42
2023/12/24 21:37:45;;;;;;;1.83;0.60;;;24.20;70.10;;;;;;5111083;23;20031;-44
2023/12/24 21:40:09;;;;;;;1.05;0.60;;;24.20;70.20;;;;;;5112036;23;20013;-46
2023/12/24 21:42:31;;;;;;;5.55;0.85;;;24.30;70.50;;;;;;5111771;23;20021;-40
2023/12/24 21:44:54;;;;;;;2.47;0.63;;;24.20;70.50;;;;;;5112490;23;20528;-39
2023/12/24 21:47:16;;;;;;;1.73;0.50;;;24.30;70.40;;;;;;5113491;23;20083;-37
2023/12/24 21:49:39;;;;;;;3.10;0.70;;;24.30;70.30;;;;;;5117576;23;20009;-41
2023/12/24 21:52:03;;;;;;;2.08;0.85;;;24.30;70.30;;;;;;5117604;23;20016;-38
2023/12/24 21:54:25;;;;;;;;;;;24.40;70.40;;;;;;5110708;23;20016;-38
2023/12/24 21:56:47;;;;;;;1.27;0.50;;;24.40;70.40;;;;;;5122872;23;20039;-45
2023/12/24 21:59:10;;;;;;;2.85;0.73;;;24.40;70.30;;;;;;5123099;23;20349;-39
2023/12/24 22:01:32;;;;;;;2.15;0.70;;;24.50;70.30;;;;;;5118963;23;20024;-43
2023/12/24 22:03:55;;;;;;;5.70;0.93;;;24.50;70.20;;;;;;5118745;23;20064;-43
2023/12/24 22:06:18;;;;;;;3.15;0.90;;;24.50;70.10;;;;;;5114486;23;20016;-42
2023/12/24 22:08:40;;;;;;;3.08;0.90;;;24.50;70.20;;;;;;5104526;23;20451;-42
2023/12/24 22:11:03;;;;;;;6.90;1.00;;;24.50;70.20;;;;;;5113125;23;20498;-41
2023/12/24 22:13:25;;;;;;;7.00;1.02;;;24.50;70.40;;;;;;5087661;23;20017;-38
2023/12/24 22:15:48;;;;;;;0.57;0.40;;;24.50;70.40;;;;;;5095331;23;20009;-39
2023/12/24 22:18:10;;;;;;;3.78;0.80;;;24.50;70.30;;;;;;5114408;23;20017;-43
2023/12/24 22:20:33;;;;;;;6.55;1.15;;;24.50;70.30;;;;;;5114917;23;20032;-40
2023/12/24 22:22:56;;;;;;;2.00;0.55;;;24.50;70.60;;;;;;5112994;23;20494;-40
2023/12/24 22:25:18;;;;;;;3.10;1.10;;;24.50;70.70;;;;;;5114240;23;20044;-41
2023/12/24 22:27:41;;;;;;;2.13;0.70;;;24.50;70.70;;;;;;5112041;23;20447;-40
2023/12/24 22:30:03;;;;;;;7.00;1.25;;;24.50;70.70;;;;;;5114009;23;20015;-38
2023/12/24 22:32:26;;;;;;;8.10;2.05;;;24.50;70.70;;;;;;5109352;23;20013;-42
2023/12/24 22:34:49;;;;;;;5.55;1.40;;;24.50;71.00;;;;;;5110667;23;20013;-40
2023/12/24 22:37:11;;;;;;;9.43;2.05;;;24.60;71.20;;;;;;5110439;23;20292;-40
2023/12/24 22:39:34;;;;;;;7.38;1.52;;;24.60;71.00;;;;;;5111222;23;20019;-40
2023/12/24 22:41:57;;;;;;;7.82;1.73;;;24.70;70.70;;;;;;5110616;23;20023;-39
2023/12/24 22:44:19;;;;;;;4.30;1.27;;;24.80;70.80;;;;;;5112505;23;20044;-39
2023/12/24 22:46:42;;;;;;;4.13;1.58;;;24.80;70.40;;;;;;5112545;23;20017;-41
2023/12/24 22:49:06;;;;;;;3.90;1.27;;;24.80;70.50;;;;;;5113625;23;20035;-44
2023/12/24 22:51:28;;;;;;;2.55;1.30;;;24.80;70.60;;;;;;5112144;23;20009;-41
2023/12/24 22:53:51;;;;;;;4.07;1.40;;;24.80;70.60;;;;;;5115527;23;20013;-39
2023/12/24 22:56:13;;;;;;;3.35;1.30;;;24.80;70.70;;;;;;5111313;23;20419;-40
2023/12/24 22:58:36;;;;;;;3.85;1.30;;;24.80;71.00;;;;;;5112542;23;20036;-40
2023/12/24 23:00:59;;;;;;;2.60;0.93;;;24.80;70.90;;;;;;5111103;23;20503;-39
2023/12/24 23:03:22;;;;;;;7.80;1.50;;;24.90;70.80;;;;;;5114551;23;20324;-44
2023/12/24 23:05:46;;;;;;;3.78;1.17;;;24.90;70.90;;;;;;5111012;23;20012;-40
2023/12/24 23:08:08;;;;;;;6.13;1.65;;;24.90;70.80;;;;;;5111899;23;20021;-43
2023/12/24 23:10:31;;;;;;;3.80;1.40;;;25.00;71.30;;;;;;5112331;23;20024;-40
2023/12/24 23:12:54;;;;;;;8.00;1.50;;;25.00;71.40;;;;;;5112127;23;20013;-39
2023/12/24 23:15:16;;;;;;;4.53;1.38;;;25.00;71.60;;;;;;5113681;23;20449;-41
2023/12/24 23:17:39;;;;;;;4.28;1.50;;;25.10;71.50;;;;;;5113941;23;20021;-45
2023/12/24 23:20:01;;;;;;;2.80;1.23;;;25.10;71.30;;;;;;5106352;23;20021;-38
2023/12/24 23:22:24;;;;;;;4.05;1.33;;;25.10;71.00;;;;;;5105555;23;20092;-43
2023/12/24 23:24:47;;;;;;;6.28;1.60;;;25.20;70.90;;;;;;5111277;23;20030;-39
2023/12/24 23:27:09;;;;;;;3.33;1.10;;;25.20;70.80;;;;;;5113867;23;20013;-38
2023/12/24 23:29:32;;;;;;;3.63;0.95;;;25.30;70.80;;;;;;5111685;23;20024;-41
2023/12/24 23:31:54;;;;;;;2.50;0.75;;;25.30;70.50;;;;;;5111319;23;20451;-43
2023/12/24 23:34:17;;;;;;;1.98;1.00;;;25.40;70.30;;;;;;5111756;23;20020;-40
2023/12/24 23:36:39;;;;;;;2.45;1.35;;;25.40;69.90;;;;;;5111872;23;20013;-38
2023/12/24 23:39:02;;;;;;;3.33;1.27;;;25.40;69.80;;;;;;5111499;23;20017;-40
2023/12/24 23:41:25;;;;;;;4.90;0.93;;;25.50;69.80;;;;;;5111568;23;20040;-40
2023/12/24 23:43:47;;;;;;;4.35;0.88;;;25.50;70.50;;;;;;5110407;23;20097;-40
2023/12/24 23:46:10;;;;;;;2.08;0.77;;;25.50;69.70;;;;;;5112594;23;20020;-41
2023/12/24 23:48:32;;;;;;;4.97;1.30;;;25.60;69.50;;;;;;5109517;23;20017;-43
2023/12/24 23:50:55;;;;;;;7.20;2.05;;;25.60;69.50;;;;;;5111545;23;20044;-40
2023/12/24 23:53:18;;;;;;;1.85;0.73;;;25.70;69.40;;;;;;5109246;23;20017;-41
2023/12/24 23:55:41;;;;;;;3.25;1.10;;;25.70;69.40;;;;;;5113055;23;20013;-43
2023/12/24 23:58:03;;;;;;;2.65;0.93;;;25.70;69.30;;;;;;5085590;23;20021;-39
